createdAt,value
2023-05-05T00:02:26.471Z,101526.09
2023-05-05T00:04:53.298Z,101537.19
2023-05-05T00:07:19.865Z,101529.47
2023-05-05T00:09:46.343Z,101548.69
2023-05-05T00:12:12.932Z,101546.63
2023-05-05T00:14:39.442Z,101539.31
2023-05-05T00:17:05.985Z,101543.16
2023-05-05T00:19:32.459Z,101536.66
2023-05-05T00:21:59.031Z,101534.28
2023-05-05T00:24:26.152Z,101533.78
2023-05-05T00:26:52.625Z,101529.28
2023-05-05T00:29:19.119Z,101523.59
2023-05-05T00:31:46.043Z,101523.09
2023-05-05T00:34:12.565Z,101518.84
2023-05-05T00:36:39.002Z,101515.31
2023-05-05T00:39:05.508Z,101518.59
2023-05-05T00:41:31.943Z,101524.13
2023-05-05T00:43:58.504Z,101534.28
2023-05-05T00:46:27.403Z,101539.88
2023-05-05T00:48:54.746Z,101546.22
2023-05-05T00:51:22.750Z,101552.88
2023-05-05T00:53:49.626Z,101551.84
2023-05-05T00:56:21.943Z,101546.78
2023-05-05T00:58:49.091Z,101541.00
2023-05-05T01:01:16.540Z,101537.38
2023-05-05T01:03:43.276Z,101529.25
2023-05-05T01:06:23.290Z,101526.16
2023-05-05T01:09:19.677Z,101528.66
2023-05-05T01:11:58.299Z,101529.97
2023-05-05T01:14:36.285Z,101520.97
2023-05-05T01:17:35.016Z,101526.09
2023-05-05T01:20:23.716Z,101530.09
2023-05-05T01:22:59.489Z,101536.22
2023-05-05T01:25:44.404Z,101532.63
2023-05-05T01:28:28.048Z,101534.59
2023-05-05T01:31:09.362Z,101539.44
2023-05-05T01:33:44.069Z,101549.06
2023-05-05T01:36:15.424Z,101551.78
2023-05-05T01:38:45.874Z,101551.59
2023-05-05T01:41:17.290Z,101552.44
2023-05-05T01:43:47.106Z,101541.34
2023-05-05T01:46:15.287Z,101541.34
2023-05-05T01:48:43.802Z,101547.72
2023-05-05T01:51:12.001Z,101555.44
2023-05-05T01:53:39.635Z,101561.03
2023-05-05T01:56:08.420Z,101573.81
2023-05-05T01:58:36.054Z,101582.34
2023-05-05T02:01:03.996Z,101579.69
2023-05-05T02:03:33.939Z,101584.50
2023-05-05T02:06:01.770Z,101572.81
2023-05-05T02:08:30.067Z,101567.03
2023-05-05T02:10:57.700Z,101536.66
2023-05-05T02:13:26.195Z,101536.53
2023-05-05T02:15:57.628Z,101532.63
2023-05-05T02:18:26.055Z,101522.31
2023-05-05T02:20:53.248Z,101525.75
2023-05-05T02:23:20.292Z,101545.28
2023-05-05T02:25:50.634Z,101547.28
2023-05-05T02:28:27.816Z,101550.88
2023-05-05T02:31:16.574Z,101541.53
2023-05-05T02:33:48.326Z,101537.47
2023-05-05T02:36:21.714Z,101546.97
2023-05-05T02:38:53.439Z,101552.78
2023-05-05T02:41:26.111Z,101552.72
2023-05-05T02:43:55.628Z,101551.06
2023-05-05T02:46:22.385Z,101543.50
2023-05-05T02:48:49.078Z,101544.97
2023-05-05T02:51:15.847Z,101535.59
2023-05-05T02:53:42.675Z,101538.94
2023-05-05T02:56:26.850Z,101537.75
2023-05-05T02:59:07.087Z,101540.19
2023-05-05T03:02:05.992Z,101546.63
2023-05-05T03:04:40.334Z,101546.78
2023-05-05T03:07:21.101Z,101548.88
2023-05-05T03:10:04.702Z,101545.25
2023-05-05T03:12:38.670Z,101554.97
2023-05-05T03:15:09.545Z,101558.84
2023-05-05T03:17:36.911Z,101555.16
2023-05-05T03:20:06.246Z,101562.53
2023-05-05T03:22:39.089Z,101569.44
2023-05-05T03:25:06.343Z,101571.84
2023-05-05T03:27:32.907Z,101570.88
2023-05-05T03:29:59.552Z,101581.78
2023-05-05T03:32:26.334Z,101588.47
2023-05-05T03:34:53.108Z,101580.53
2023-05-05T03:37:19.747Z,101572.00
2023-05-05T03:39:46.373Z,101563.75
2023-05-05T03:42:13.094Z,101559.81
2023-05-05T03:44:41.887Z,101555.78
2023-05-05T03:47:08.592Z,101572.72
2023-05-05T03:49:36.460Z,101580.66
2023-05-05T03:52:06.341Z,101585.16
2023-05-05T03:54:32.894Z,101592.06
2023-05-05T03:56:59.849Z,101606.81
2023-05-05T03:59:26.619Z,101614.66
2023-05-05T04:01:53.378Z,101600.53
2023-05-05T04:04:20.059Z,101606.88
2023-05-05T04:06:46.719Z,101619.06
2023-05-05T04:09:14.817Z,101618.84
2023-05-05T04:11:43.693Z,101624.94
2023-05-05T04:14:10.402Z,101628.63
2023-05-05T04:16:37.069Z,101631.03
2023-05-05T04:19:06.209Z,101633.09
2023-05-05T04:21:34.934Z,101634.72
2023-05-05T04:24:01.549Z,101637.13
2023-05-05T04:26:28.232Z,101634.47
2023-05-05T04:28:57.928Z,101645.63
2023-05-05T04:31:24.608Z,101642.19
2023-05-05T04:33:51.308Z,101647.00
2023-05-05T04:36:20.193Z,101654.72
2023-05-05T04:38:50.057Z,101657.38
2023-05-05T04:41:16.651Z,101661.81
2023-05-05T04:43:43.314Z,101659.50
2023-05-05T04:46:10.080Z,101657.88
2023-05-05T04:48:37.979Z,101665.13
2023-05-05T04:51:06.367Z,101659.63
2023-05-05T04:53:33.547Z,101669.63
2023-05-05T04:56:01.603Z,101660.25
2023-05-05T04:58:28.983Z,101665.16
2023-05-05T05:00:55.767Z,101671.25
2023-05-05T05:03:22.653Z,101669.44
2023-05-05T05:05:49.452Z,101670.03
2023-05-05T05:08:16.957Z,101672.75
2023-05-05T05:10:44.187Z,101676.53
2023-05-05T05:13:12.990Z,101677.16
2023-05-05T05:15:41.984Z,101673.84
2023-05-05T05:18:08.603Z,101677.97
2023-05-05T05:20:35.280Z,101674.59
2023-05-05T05:23:02.425Z,101676.56
2023-05-05T05:25:29.202Z,101678.19
2023-05-05T05:30:31.095Z,101682.47
2023-05-05T05:32:57.712Z,101688.50
2023-05-05T05:35:24.343Z,101693.69
2023-05-05T05:37:53.676Z,101686.28
2023-05-05T05:40:20.551Z,101680.19
2023-05-05T05:42:47.117Z,101694.88
2023-05-05T05:45:13.709Z,101703.66
2023-05-05T05:47:40.419Z,101705.31
2023-05-05T05:50:07.906Z,101701.19
2023-05-05T05:52:36.140Z,101709.69
2023-05-05T05:55:05.833Z,101709.03
2023-05-05T05:57:32.432Z,101701.88
2023-05-05T06:00:01.580Z,101697.31
2023-05-05T06:02:28.926Z,101698.31
2023-05-05T06:04:55.648Z,101695.59
2023-05-05T06:07:22.313Z,101697.69
2023-05-05T06:09:48.940Z,101701.47
2023-05-05T06:12:15.645Z,101696.38
2023-05-05T06:14:42.485Z,101687.25
2023-05-05T06:17:09.137Z,101687.50
2023-05-05T06:19:40.968Z,101691.44
2023-05-05T06:22:07.631Z,101692.31
2023-05-05T06:24:37.120Z,101698.41
2023-05-05T06:27:03.840Z,101691.19
2023-05-05T06:29:33.146Z,101693.63
2023-05-05T06:32:01.337Z,101707.56
2023-05-05T06:34:27.840Z,101709.22
2023-05-05T06:36:54.543Z,101707.16
2023-05-05T06:39:21.054Z,101703.16
2023-05-05T06:41:49.938Z,101707.44
2023-05-05T06:44:16.573Z,101710.63
2023-05-05T06:46:43.787Z,101710.63
2023-05-05T06:49:10.526Z,101713.84
2023-05-05T06:51:41.040Z,101710.66
2023-05-05T06:54:10.252Z,101719.78
2023-05-05T06:56:36.803Z,101722.19
2023-05-05T06:59:03.457Z,101724.06
2023-05-05T07:01:30.035Z,101726.19
2023-05-05T07:03:57.213Z,101726.19
2023-05-05T07:06:23.877Z,101729.38
2023-05-05T07:08:50.595Z,101727.84
2023-05-05T07:11:17.383Z,101734.91
2023-05-05T07:13:43.930Z,101725.09
2023-05-05T07:16:10.575Z,101733.91
2023-05-05T07:18:37.073Z,101741.16
2023-05-05T07:21:05.886Z,101735.25
2023-05-05T07:23:32.900Z,101735.53
2023-05-05T07:26:00.609Z,101730.97
2023-05-05T07:28:27.079Z,101739.19
2023-05-05T07:30:53.641Z,101732.47
2023-05-05T07:33:20.281Z,101739.16
2023-05-05T07:35:46.793Z,101739.66
2023-05-05T07:38:13.349Z,101752.53
2023-05-05T07:40:39.824Z,101741.91
2023-05-05T07:43:06.471Z,101741.91
2023-05-05T07:45:33.011Z,101742.19
2023-05-05T07:47:59.594Z,101738.72
2023-05-05T07:50:27.072Z,101743.53
2023-05-05T07:53:02.444Z,101749.13
2023-05-05T07:55:40.018Z,101743.78
2023-05-05T07:58:06.529Z,101741.94
2023-05-05T08:00:33.076Z,101739.25
2023-05-05T08:02:59.690Z,101736.88
2023-05-05T08:05:26.305Z,101740.88
2023-05-05T08:07:52.848Z,101743.25
2023-05-05T08:10:19.491Z,101747.25
2023-05-05T08:12:46.077Z,101754.78
2023-05-05T08:15:12.537Z,101756.06
2023-05-05T08:17:50.159Z,101743.44
2023-05-05T08:20:19.039Z,101753.53
2023-05-05T08:22:46.319Z,101744.22
2023-05-05T08:25:13.909Z,101745.16
2023-05-05T08:27:42.041Z,101736.81
2023-05-05T08:30:09.442Z,101737.81
2023-05-05T08:32:36.148Z,101739.75
2023-05-05T08:35:05.594Z,101741.16
2023-05-05T08:37:32.543Z,101737.25
2023-05-05T08:39:59.143Z,101760.00
2023-05-05T08:42:35.647Z,101755.19
2023-05-05T08:45:03.420Z,101758.41
2023-05-05T08:47:31.539Z,101758.66
2023-05-05T08:49:59.536Z,101759.72
2023-05-05T08:52:29.038Z,101755.69
2023-05-05T08:55:02.472Z,101757.84
2023-05-05T08:57:36.529Z,101767.44
2023-05-05T09:00:04.284Z,101765.84
2023-05-05T09:02:32.782Z,101775.47
2023-05-05T09:05:05.069Z,101769.06
2023-05-05T09:07:32.721Z,101769.06
2023-05-05T09:10:00.759Z,101766.13
2023-05-05T09:12:30.986Z,101749.56
2023-05-05T09:14:59.286Z,101751.97
2023-05-05T09:17:26.950Z,101758.13
2023-05-05T09:20:02.315Z,101767.47
2023-05-05T09:22:44.126Z,101759.19
2023-05-05T09:25:12.946Z,101756.22
2023-05-05T09:27:46.186Z,101757.53
2023-05-05T09:30:16.646Z,101758.88
2023-05-05T09:32:48.865Z,101768.75
2023-05-05T09:35:16.646Z,101758.59
2023-05-05T09:37:43.671Z,101766.88
2023-05-05T09:40:12.840Z,101765.84
2023-05-05T09:42:40.542Z,101762.66
2023-05-05T09:45:27.639Z,101763.19
2023-05-05T09:47:59.088Z,101757.63
2023-05-05T09:50:30.306Z,101756.31
2023-05-05T09:52:59.884Z,101749.91
2023-05-05T09:55:26.760Z,101755.78
2023-05-05T09:57:53.388Z,101756.56
2023-05-05T10:00:20.549Z,101753.31
2023-05-05T10:02:47.304Z,101752.78
2023-05-05T10:05:18.847Z,101755.19
2023-05-05T10:07:47.574Z,101754.72
2023-05-05T10:10:17.422Z,101757.66
2023-05-05T10:12:46.551Z,101767.00
2023-05-05T10:15:15.665Z,101791.56
2023-05-05T10:18:02.377Z,101811.50
2023-05-05T10:20:33.414Z,101822.53
2023-05-05T10:23:05.641Z,101797.94
2023-05-05T10:25:39.324Z,101799.09
2023-05-05T10:28:06.823Z,101805.09
2023-05-05T10:30:39.520Z,101792.72
2023-05-05T10:33:31.793Z,101801.22
2023-05-05T10:36:02.512Z,101804.53
2023-05-05T10:38:33.704Z,101792.88
2023-05-05T10:41:02.259Z,101791.59
2023-05-05T10:43:31.364Z,101799.31
2023-05-05T10:45:59.112Z,101794.72
2023-05-05T10:48:33.696Z,101805.66
2023-05-05T10:51:45.060Z,101813.13
2023-05-05T10:54:30.698Z,101811.97
2023-05-05T10:57:01.287Z,101809.22
2023-05-05T10:59:36.985Z,101811.22
2023-05-05T11:02:20.055Z,101823.75
2023-05-05T11:05:15.175Z,101836.44
2023-05-05T11:07:43.131Z,101834.25
2023-05-05T11:10:11.923Z,101834.25
2023-05-05T11:13:03.004Z,101836.38
2023-05-05T11:15:29.948Z,101839.09
2023-05-05T11:17:58.407Z,101836.16
2023-05-05T11:20:48.056Z,101824.94
2023-05-05T11:23:20.762Z,101827.44
2023-05-05T11:25:47.427Z,101820.03
2023-05-05T11:28:24.833Z,101823.09
2023-05-05T11:30:58.544Z,101825.66
2023-05-05T11:33:26.335Z,101835.31
2023-05-05T11:35:59.758Z,101847.13
2023-05-05T11:38:41.242Z,101854.91
2023-05-05T11:41:16.793Z,101851.22
2023-05-05T11:43:43.408Z,101850.75
2023-05-05T11:46:14.619Z,101846.81
2023-05-05T11:48:48.302Z,101847.38
2023-05-05T11:51:17.026Z,101849.56
2023-05-05T11:53:48.370Z,101854.63
2023-05-05T11:56:22.389Z,101849.47
2023-05-05T11:59:04.682Z,101848.91
2023-05-05T12:01:31.285Z,101853.72
2023-05-05T12:03:58.080Z,101845.53
2023-05-05T12:06:24.812Z,101841.28
2023-05-05T12:08:51.329Z,101836.28
2023-05-05T12:11:18.483Z,101829.94
2023-05-05T12:13:44.959Z,101825.44
2023-05-05T12:16:13.267Z,101831.31
2023-05-05T12:18:41.007Z,101834.78
2023-05-05T12:21:36.622Z,101832.22
2023-05-05T12:24:24.837Z,101833.81
2023-05-05T12:26:51.886Z,101839.13
2023-05-05T12:29:28.834Z,101833.81
2023-05-05T12:31:56.047Z,101833.06
2023-05-05T12:34:23.703Z,101838.38
2023-05-05T12:36:50.560Z,101833.88
2023-05-05T12:39:17.128Z,101837.88
2023-05-05T12:41:44.237Z,101833.94
2023-05-05T12:44:10.874Z,101832.34
2023-05-05T12:46:49.026Z,101824.94
2023-05-05T12:49:17.582Z,101825.03
2023-05-05T12:51:57.046Z,101828.72
2023-05-05T12:54:24.997Z,101823.41
2023-05-05T12:56:59.637Z,101823.41
2023-05-05T12:59:30.758Z,101814.97
2023-05-05T13:02:00.102Z,101821.09
2023-05-05T13:04:27.912Z,101817.22
2023-05-05T13:07:15.359Z,101820.69
2023-05-05T13:09:42.391Z,101821.50
2023-05-05T13:12:11.607Z,101814.41
2023-05-05T13:14:39.035Z,101824.81
2023-05-05T13:17:05.760Z,101823.72
2023-05-05T13:19:32.313Z,101824.78
2023-05-05T13:21:59.197Z,101824.22
2023-05-05T13:24:37.911Z,101824.72
2023-05-05T13:27:09.360Z,101830.50
2023-05-05T13:29:36.233Z,101828.66
2023-05-05T13:32:02.973Z,101835.81
2023-05-05T13:34:29.655Z,101838.78
2023-05-05T13:36:56.464Z,101842.06
2023-05-05T13:39:23.002Z,101846.56
2023-05-05T13:41:49.530Z,101844.47
2023-05-05T13:44:16.154Z,101850.75
2023-05-05T13:46:43.381Z,101848.03
2023-05-05T13:49:10.253Z,101851.72
2023-05-05T13:51:38.195Z,101845.06
2023-05-05T13:54:05.539Z,101853.19
2023-05-05T13:56:32.660Z,101845.44
2023-05-05T13:58:59.334Z,101845.13
2023-05-05T14:01:25.907Z,101840.78
2023-05-05T14:03:53.607Z,101845.00
2023-05-05T14:06:21.509Z,101842.81
2023-05-05T14:08:48.008Z,101828.75
2023-05-05T14:11:17.038Z,101838.63
2023-05-05T14:13:44.690Z,101831.47
2023-05-05T14:16:11.215Z,101821.66
2023-05-05T14:18:37.771Z,101816.34
2023-05-05T14:21:06.955Z,101815.53
2023-05-05T14:23:33.640Z,101810.22
2023-05-05T14:26:00.708Z,101803.66
2023-05-05T14:28:27.209Z,101794.31
2023-05-05T14:30:53.861Z,101792.75
2023-05-05T14:33:20.380Z,101791.03
2023-05-05T14:35:47.069Z,101787.03
2023-05-05T14:38:13.616Z,101777.13
2023-05-05T14:40:40.077Z,101773.03
2023-05-05T14:43:06.679Z,101765.00
2023-05-05T14:45:33.643Z,101746.19
2023-05-05T14:48:00.255Z,101743.88
2023-05-05T14:50:26.798Z,101755.44
2023-05-05T14:52:53.352Z,101761.03
2023-05-05T14:55:19.981Z,101772.25
2023-05-05T14:57:46.538Z,101791.69
2023-05-05T15:00:13.514Z,101800.06
2023-05-05T15:02:40.159Z,101790.31
2023-05-05T15:05:07.762Z,101780.19
2023-05-05T15:07:34.479Z,101787.16
2023-05-05T15:10:01.031Z,101791.75
2023-05-05T15:12:27.931Z,101792.72
2023-05-05T15:14:55.467Z,101783.16
2023-05-05T15:17:22.424Z,101781.75
2023-05-05T15:19:49.037Z,101780.63
2023-05-05T15:22:15.638Z,101777.19
2023-05-05T15:24:42.161Z,101772.13
2023-05-05T15:27:08.765Z,101775.88
2023-05-05T15:29:35.293Z,101774.63
2023-05-05T15:32:01.810Z,101772.84
2023-05-05T15:34:28.331Z,101769.19
2023-05-05T15:36:54.801Z,101760.47
2023-05-05T15:39:21.300Z,101758.97
2023-05-05T15:41:47.866Z,101754.50
2023-05-05T15:44:14.505Z,101757.22
2023-05-05T15:46:41.404Z,101756.16
2023-05-05T15:49:07.998Z,101757.72
2023-05-05T15:51:34.526Z,101751.34
2023-05-05T15:54:01.055Z,101754.00
2023-05-05T15:56:27.641Z,101747.38
2023-05-05T15:58:54.402Z,101748.38
2023-05-05T16:01:21.295Z,101751.84
2023-05-05T16:03:47.789Z,101751.56
2023-05-05T16:06:14.375Z,101755.28
2023-05-05T16:08:40.885Z,101750.28
2023-05-05T16:11:07.544Z,101745.72
2023-05-05T16:13:34.085Z,101749.25
2023-05-05T16:16:00.601Z,101746.63
2023-05-05T16:18:27.061Z,101744.34
2023-05-05T16:20:53.524Z,101747.84
2023-05-05T16:23:22.776Z,101748.41
2023-05-05T16:25:49.362Z,101734.75
2023-05-05T16:28:15.926Z,101740.28
2023-05-05T16:30:43.296Z,101734.41
2023-05-05T16:33:10.393Z,101739.16
2023-05-05T16:35:39.843Z,101728.22
2023-05-05T16:38:06.483Z,101729.28
2023-05-05T16:40:33.038Z,101725.81
2023-05-05T16:42:59.536Z,101733.28
2023-05-05T16:45:26.115Z,101730.38
2023-05-05T16:47:52.966Z,101735.19
2023-05-05T16:50:19.726Z,101729.09
2023-05-05T16:52:46.251Z,101727.44
2023-05-05T16:55:42.010Z,101731.13
2023-05-05T16:58:08.483Z,101725.78
2023-05-05T17:00:35.009Z,101726.59
2023-05-05T17:03:01.465Z,101737.47
2023-05-05T17:05:28.069Z,101744.66
2023-05-05T17:07:54.663Z,101739.59
2023-05-05T17:10:21.175Z,101733.22
2023-05-05T17:12:47.974Z,101734.28
2023-05-05T17:15:14.538Z,101736.88
2023-05-05T17:17:42.925Z,101730.75
2023-05-05T17:20:10.439Z,101737.44
2023-05-05T17:22:37.419Z,101734.53
2023-05-05T17:25:05.159Z,101734.53
2023-05-05T17:27:31.941Z,101740.03
2023-05-05T17:29:58.749Z,101740.81
2023-05-05T17:32:25.938Z,101737.88
2023-05-05T17:34:52.517Z,101733.91
2023-05-05T17:37:19.000Z,101728.78
2023-05-05T17:39:45.622Z,101732.25
2023-05-05T17:42:12.100Z,101732.00
2023-05-05T17:44:38.567Z,101727.25
2023-05-05T17:47:07.669Z,101741.31
2023-05-05T17:49:34.771Z,101738.41
2023-05-05T17:52:01.375Z,101741.63
2023-05-05T17:54:27.848Z,101747.19
2023-05-05T17:56:54.372Z,101745.53
2023-05-05T17:59:20.817Z,101755.84
2023-05-05T18:01:47.369Z,101751.84
2023-05-05T18:04:13.910Z,101762.44
2023-05-05T18:06:40.667Z,101756.84
2023-05-05T18:09:07.769Z,101756.28
2023-05-05T18:11:35.330Z,101766.91
2023-05-05T18:14:01.859Z,101761.03
2023-05-05T18:16:28.287Z,101758.66
2023-05-05T18:18:54.726Z,101765.81
2023-05-05T18:21:21.189Z,101757.53
2023-05-05T18:23:47.822Z,101756.97
2023-05-05T18:26:14.379Z,101755.38
2023-05-05T18:28:40.899Z,101752.66
2023-05-05T18:31:08.086Z,101750.47
2023-05-05T18:33:35.043Z,101758.53
2023-05-05T18:36:03.249Z,101761.97
2023-05-05T18:38:31.839Z,101766.25
2023-05-05T18:40:58.370Z,101764.28
2023-05-05T18:43:24.940Z,101768.38
2023-05-05T18:45:51.628Z,101776.50
2023-05-05T18:48:18.228Z,101773.59
2023-05-05T18:50:45.865Z,101771.66
2023-05-05T18:53:14.903Z,101772.38
2023-05-05T18:55:42.931Z,101774.94
2023-05-05T18:58:09.473Z,101770.88
2023-05-05T19:00:36.008Z,101762.97
2023-05-05T19:03:02.540Z,101773.41
2023-05-05T19:05:29.058Z,101767.91
2023-05-05T19:07:55.743Z,101777.28
2023-05-05T19:10:22.275Z,101772.09
2023-05-05T19:12:49.022Z,101776.72
2023-05-05T19:15:15.639Z,101782.28
2023-05-05T19:17:42.155Z,101779.88
2023-05-05T19:20:09.427Z,101779.06
2023-05-05T19:22:35.917Z,101784.38
2023-05-05T19:25:02.879Z,101780.34
2023-05-05T19:27:29.414Z,101783.22
2023-05-05T19:29:55.947Z,101789.03
2023-05-05T19:32:22.580Z,101800.09
2023-05-05T19:34:49.294Z,101795.72
2023-05-05T19:37:15.857Z,101794.38
2023-05-05T19:39:45.581Z,101804.06
2023-05-05T19:42:12.094Z,101796.50
2023-05-05T19:44:38.676Z,101806.25
2023-05-05T19:47:05.438Z,101803.38
2023-05-05T19:49:32.028Z,101799.13
2023-05-05T19:51:58.984Z,101798.56
2023-05-05T19:54:26.282Z,101803.16
2023-05-05T19:56:55.166Z,101809.38
2023-05-05T19:59:21.951Z,101805.47
2023-05-05T20:01:48.682Z,101806.97
2023-05-05T20:04:15.469Z,101811.91
2023-05-05T20:06:41.965Z,101814.78
2023-05-05T20:09:08.649Z,101808.22
2023-05-05T20:11:35.716Z,101813.97
2023-05-05T20:14:02.345Z,101809.94
2023-05-05T20:16:29.022Z,101811.41
2023-05-05T20:18:55.880Z,101821.88
2023-05-05T20:21:22.418Z,101816.22
2023-05-05T20:23:48.952Z,101810.00
2023-05-05T20:26:15.714Z,101819.41
2023-05-05T20:28:44.841Z,101822.50
2023-05-05T20:31:13.448Z,101819.88
2023-05-05T20:33:40.098Z,101819.28
2023-05-05T20:36:07.306Z,101825.84
2023-05-05T20:38:33.797Z,101823.63
2023-05-05T20:41:00.277Z,101821.00
2023-05-05T20:43:26.860Z,101822.47
2023-05-05T20:45:53.478Z,101822.38
2023-05-05T20:48:19.975Z,101823.41
2023-05-05T20:50:46.620Z,101814.09
2023-05-05T20:53:16.134Z,101816.59
2023-05-05T20:55:42.701Z,101817.78
2023-05-05T20:58:09.316Z,101811.22
2023-05-05T21:00:36.178Z,101806.41
2023-05-05T21:03:02.946Z,101807.19
2023-05-05T21:05:29.978Z,101813.72
2023-05-05T21:07:58.293Z,101808.53
2023-05-05T21:10:25.837Z,101811.25
2023-05-05T21:12:52.327Z,101806.19
2023-05-05T21:15:19.015Z,101815.72
2023-05-05T21:17:45.491Z,101804.72
2023-05-05T21:20:12.617Z,101807.94
2023-05-05T21:22:39.410Z,101807.13
2023-05-05T21:25:16.533Z,101806.34
2023-05-05T21:27:43.135Z,101808.38
2023-05-05T21:30:11.422Z,101807.88
2023-05-05T21:32:38.857Z,101797.28
2023-05-05T21:35:07.306Z,101806.88
2023-05-05T21:37:34.318Z,101810.41
2023-05-05T21:40:00.795Z,101810.47
2023-05-05T21:42:29.907Z,101813.69
2023-05-05T21:44:56.750Z,101811.22
2023-05-05T21:47:23.313Z,101804.47
2023-05-05T21:49:50.032Z,101804.91
2023-05-05T21:52:17.104Z,101808.78
2023-05-05T21:54:43.816Z,101809.00
2023-05-05T21:57:10.432Z,101809.22
2023-05-05T21:59:37.003Z,101800.78
2023-05-05T22:02:03.532Z,101802.78
2023-05-05T22:04:30.080Z,101801.38
2023-05-05T22:06:56.786Z,101797.56
2023-05-05T22:09:23.343Z,101796.47
2023-05-05T22:11:50.718Z,101793.31
2023-05-05T22:14:17.249Z,101796.75
2023-05-05T22:16:43.938Z,101801.38
2023-05-05T22:19:10.697Z,101804.97
2023-05-05T22:21:37.224Z,101798.09
2023-05-05T22:24:04.338Z,101803.81
2023-05-05T22:26:30.843Z,101804.44
2023-05-05T22:28:57.513Z,101810.19
2023-05-05T22:31:24.270Z,101803.72
2023-05-05T22:33:50.755Z,101797.88
2023-05-05T22:36:17.267Z,101799.47
2023-05-05T22:38:43.677Z,101797.88
2023-05-05T22:41:10.318Z,101804.00
2023-05-05T22:43:37.160Z,101807.22
2023-05-05T22:46:03.717Z,101810.88
2023-05-05T22:48:30.264Z,101797.38
2023-05-05T22:50:57.130Z,101798.72
2023-05-05T22:53:23.644Z,101794.72
2023-05-05T22:55:51.590Z,101796.09
2023-05-05T22:58:18.251Z,101798.50
2023-05-05T23:00:44.820Z,101797.06
2023-05-05T23:03:11.706Z,101793.84
2023-05-05T23:05:38.239Z,101795.81
2023-05-05T23:08:05.008Z,101794.22
2023-05-05T23:10:31.508Z,101787.31
2023-05-05T23:12:58.093Z,101785.69
2023-05-05T23:15:24.978Z,101791.78
2023-05-05T23:17:51.529Z,101787.53
2023-05-05T23:20:18.209Z,101785.66
2023-05-05T23:22:44.721Z,101799.81
2023-05-05T23:25:11.413Z,101788.03
2023-05-05T23:27:39.928Z,101788.03
2023-05-05T23:30:10.703Z,101785.63
2023-05-05T23:32:37.378Z,101779.34
2023-05-05T23:35:04.224Z,101784.44
2023-05-05T23:37:30.999Z,101781.78
2023-05-05T23:39:57.466Z,101786.88
2023-05-05T23:42:24.872Z,101789.00
2023-05-05T23:44:51.448Z,101783.25
2023-05-05T23:47:17.974Z,101787.13
2023-05-05T23:49:44.473Z,101786.66
2023-05-05T23:52:11.265Z,101781.53
2023-05-05T23:54:37.896Z,101778.81
2023-05-05T23:57:04.446Z,101777.56
2023-05-05T23:59:30.862Z,101775.97
